Time;durP1;ratioP1;P1;durP2;ratioP2;P2;SDS_P1;SDS_P2;PMS_P1;PMS_P2;Temp;Humidity;BMP_temperature;BMP_pressure;BME280_temperature;BME280_humidity;BME280_pressure;Samples;Min_cycle;Max_cycle;Signal;HPM_P1;HPM_P2
2021/01/02 15:26:00;;;;;;;;;;;;;;;;;;5075998;27;186861;-74
2021/01/02 15:56:23;;;;;;;;;;;20.30;56.10;;;;;;5060936;27;19928;-75
2021/01/02 15:59:53;;;;;;;4.60;1.50;;;20.30;56.80;;;;;;4995707;28;20307;-73
2021/01/02 16:07:14;;;;;;;6.47;2.23;;;13.40;74.80;;;;;;5059793;28;20635;-78
2021/01/02 16:09:40;;;;;;;6.50;2.10;;;12.90;78.70;;;;;;5059369;28;20793;-78
2021/01/02 16:12:09;;;;;;;4.37;1.77;;;12.60;78.10;;;;;;5007807;28;20227;-78
2021/01/02 16:14:35;;;;;;;3.60;1.73;;;11.90;79.40;;;;;;5028554;28;20536;-78
2021/01/02 16:17:01;;;;;;;7.10;2.60;;;11.30;81.30;;;;;;5044915;28;20202;-79
2021/01/02 16:19:28;;;;;;;6.83;2.20;;;10.80;83.60;;;;;;5058932;28;20197;-78
2021/01/02 16:21:56;;;;;;;3.00;2.40;;;10.40;86.30;;;;;;5062378;28;20191;-79
2021/01/02 16:24:22;;;;;;;4.57;2.20;;;10.10;87.30;;;;;;5029473;28;20182;-79
2021/01/02 16:26:48;;;;;;;3.83;1.83;;;9.80;88.60;;;;;;5029960;28;20226;-78
2021/01/02 16:29:19;;;;;;;5.87;2.43;;;9.70;89.40;;;;;;5013674;28;20187;-80
2021/01/02 16:31:49;;;;;;;5.33;2.50;;;9.50;90.10;;;;;;5030846;28;20188;-79
2021/01/02 16:34:17;;;;;;;7.17;2.50;;;9.40;90.60;;;;;;5028147;28;20628;-79
2021/01/02 16:36:43;;;;;;;3.00;1.93;;;9.30;90.90;;;;;;5027595;28;88974;-78
2021/01/02 16:39:09;;;;;;;4.93;2.90;;;9.20;91.10;;;;;;5023637;28;20235;-78
2021/01/02 16:41:35;;;;;;;5.20;2.47;;;9.20;91.50;;;;;;5012110;28;20195;-79
2021/01/02 16:44:01;;;;;;;4.13;2.57;;;9.10;91.60;;;;;;5026154;28;20195;-79
2021/01/02 16:46:28;;;;;;;5.33;2.23;;;9.10;91.80;;;;;;5017043;28;20388;-79
2021/01/02 16:48:57;;;;;;;2.70;2.40;;;9.00;92.00;;;;;;5020689;28;20249;-79
2021/01/02 16:51:27;;;;;;;5.50;2.70;;;8.90;92.20;;;;;;5020166;28;20172;-80
2021/01/02 16:53:53;;;;;;;11.63;4.33;;;8.90;92.40;;;;;;5032642;28;20182;-79
2021/01/02 16:56:22;;;;;;;4.73;3.07;;;8.90;92.40;;;;;;5036427;28;20179;-79
2021/01/02 16:58:48;;;;;;;3.90;2.87;;;8.90;92.50;;;;;;5030771;28;20226;-80
2021/01/02 17:01:16;;;;;;;5.30;2.90;;;8.90;92.70;;;;;;5022431;28;20220;-79
2021/01/02 17:03:42;;;;;;;6.53;2.93;;;8.90;92.80;;;;;;5029235;28;20187;-78
2021/01/02 17:06:17;;;;;;;5.60;2.67;;;8.80;92.80;;;;;;5031771;28;20386;-79
2021/01/02 17:08:43;;;;;;;7.50;2.90;;;8.80;93.00;;;;;;5031860;28;20179;-80
2021/01/02 17:11:09;;;;;;;6.47;3.20;;;8.80;93.00;;;;;;5018919;28;20192;-83
2021/01/02 17:13:34;;;;;;;5.43;3.03;;;8.80;93.20;;;;;;5027625;28;20265;-84
2021/01/02 17:16:00;;;;;;;5.77;3.50;;;8.80;93.20;;;;;;5018893;28;20196;-84
2021/01/02 17:18:26;;;;;;;8.90;3.23;;;8.80;93.30;;;;;;5018660;28;20198;-84
2021/01/02 17:20:51;;;;;;;9.03;3.80;;;8.80;93.70;;;;;;5022125;28;20184;-84
2021/01/02 17:23:17;;;;;;;5.07;3.00;;;8.70;93.50;;;;;;5006995;28;20675;-84
2021/01/02 17:25:43;;;;;;;4.03;3.63;;;8.70;93.60;;;;;;5015199;28;20212;-83
2021/01/02 17:28:10;;;;;;;7.33;3.37;;;8.70;93.60;;;;;;5013775;28;20250;-84
2021/01/02 17:30:35;;;;;;;6.30;3.03;;;8.70;93.70;;;;;;5016310;28;20547;-84
2021/01/02 17:33:01;;;;;;;5.80;3.10;;;8.70;93.80;;;;;;5010177;28;20211;-84
2021/01/02 17:35:27;;;;;;;5.50;3.40;;;8.70;93.90;;;;;;5040109;28;20204;-84
2021/01/02 17:37:53;;;;;;;4.50;3.37;;;8.70;94.00;;;;;;5028599;28;20194;-83
2021/01/02 17:40:18;;;;;;;10.17;3.07;;;8.70;94.00;;;;;;5003609;28;20624;-84
2021/01/02 17:42:44;;;;;;;7.20;3.37;;;8.70;94.10;;;;;;5006523;28;20223;-84
2021/01/02 17:45:12;;;;;;;10.70;3.40;;;8.70;94.10;;;;;;5006902;28;20219;-84
2021/01/02 17:47:39;;;;;;;5.23;3.57;;;8.70;94.10;;;;;;5008525;28;20188;-85
2021/01/02 17:50:05;;;;;;;4.03;3.43;;;8.70;94.10;;;;;;5007170;28;20226;-84
2021/01/02 17:52:31;;;;;;;9.47;3.53;;;8.70;94.20;;;;;;5012378;28;20199;-84
2021/01/02 17:54:57;;;;;;;7.30;2.90;;;8.70;94.20;;;;;;5014545;28;20195;-84
2021/01/02 17:57:23;;;;;;;6.27;3.57;;;8.70;94.20;;;;;;5001595;28;20228;-83
2021/01/02 17:59:48;;;;;;;7.00;3.10;;;8.70;94.20;;;;;;5011925;28;20848;-83
2021/01/02 18:02:14;;;;;;;6.17;3.13;;;8.70;94.20;;;;;;5009475;28;20266;-84
2021/01/02 18:04:44;;;;;;;4.30;3.13;;;8.70;94.30;;;;;;5013245;28;20188;-85
2021/01/02 18:07:09;;;;;;;5.07;3.47;;;8.60;94.30;;;;;;5037267;28;20627;-85
2021/01/02 18:09:36;;;;;;;8.37;3.07;;;8.60;94.30;;;;;;5009652;28;20281;-84
2021/01/02 18:12:02;;;;;;;8.90;2.93;;;8.60;94.30;;;;;;5037638;28;20187;-84
2021/01/02 18:14:31;;;;;;;9.60;3.57;;;8.70;94.40;;;;;;5045557;28;20195;-84
2021/01/02 18:17:04;;;;;;;9.47;3.97;;;8.70;94.40;;;;;;5013809;28;20279;-84
2021/01/02 18:19:31;;;;;;;11.70;3.13;;;8.70;94.40;;;;;;5013863;28;20183;-84
2021/01/02 18:21:59;;;;;;;8.83;3.13;;;8.70;94.40;;;;;;5002321;28;20192;-84
2021/01/02 18:24:28;;;;;;;8.47;3.60;;;8.70;94.40;;;;;;5015330;28;20222;-85
2021/01/02 18:26:54;;;;;;;9.80;3.50;;;8.70;94.50;;;;;;5014906;28;20302;-84
2021/01/02 18:29:21;;;;;;;17.23;4.10;;;8.70;94.50;;;;;;5016617;28;20194;-84
2021/01/02 18:31:48;;;;;;;6.70;3.93;;;8.70;94.50;;;;;;5010009;28;20208;-84
2021/01/02 18:34:17;;;;;;;10.30;4.37;;;8.70;94.50;;;;;;5017445;28;20266;-84
2021/01/02 18:36:45;;;;;;;12.17;4.43;;;8.70;94.50;;;;;;5039240;28;20193;-84
2021/01/02 18:39:12;;;;;;;11.37;4.20;;;8.70;94.50;;;;;;5028882;28;20192;-84
2021/01/02 18:41:40;;;;;;;10.53;4.60;;;8.70;94.60;;;;;;5026456;28;20751;-85
2021/01/02 18:44:11;;;;;;;7.93;3.90;;;8.70;94.60;;;;;;5015766;28;20523;-84
2021/01/02 18:46:43;;;;;;;6.33;3.80;;;8.70;94.60;;;;;;5018429;28;20230;-84
2021/01/02 18:49:11;;;;;;;11.40;4.37;;;8.80;94.70;;;;;;5014895;28;20550;-84
2021/01/02 18:51:42;;;;;;;8.67;3.90;;;8.70;94.60;;;;;;5004047;28;20184;-84
2021/01/02 18:54:14;;;;;;;13.87;4.40;;;8.80;94.60;;;;;;5010698;28;20199;-84
2021/01/02 18:56:39;;;;;;;12.53;4.00;;;8.80;94.60;;;;;;5021908;28;20188;-84
2021/01/02 18:59:06;;;;;;;6.63;3.30;;;8.80;94.70;;;;;;5014756;28;20203;-84
2021/01/02 19:01:44;;;;;;;8.63;3.77;;;8.80;94.70;;;;;;5010608;28;20274;-84
2021/01/02 19:04:11;;;;;;;9.57;3.80;;;8.70;94.70;;;;;;5014567;28;20192;-84
2021/01/02 19:06:37;;;;;;;11.33;3.47;;;8.70;94.70;;;;;;5012180;28;20224;-84
2021/01/02 19:09:04;;;;;;;12.60;3.77;;;8.70;94.70;;;;;;5041055;28;20194;-84
2021/01/02 19:11:30;;;;;;;13.17;3.57;;;8.70;94.70;;;;;;5009521;28;20193;-84
2021/01/02 19:13:56;;;;;;;13.60;3.83;;;8.70;94.80;;;;;;5013495;28;20183;-84
2021/01/02 19:16:32;;;;;;;12.43;4.03;;;8.80;94.80;;;;;;5012391;28;20412;-84
2021/01/02 19:19:00;;;;;;;10.80;3.57;;;8.70;94.80;;;;;;5011311;28;20260;-84
2021/01/02 19:21:43;;;;;;;9.90;3.80;;;8.80;94.90;;;;;;5000281;28;20571;-84
2021/01/02 19:24:14;;;;;;;13.07;3.97;;;8.80;95.00;;;;;;5018468;28;20207;-84
2021/01/02 19:26:40;;;;;;;9.60;3.33;;;8.70;94.90;;;;;;5009962;28;20224;-84
2021/01/02 19:29:09;;;;;;;8.87;4.13;;;8.80;95.00;;;;;;5005046;28;20189;-83
2021/01/02 19:31:36;;;;;;;12.83;4.53;;;8.80;95.00;;;;;;5012490;28;20557;-84
2021/01/02 19:34:03;;;;;;;12.90;4.27;;;8.80;95.10;;;;;;5017060;28;20209;-84
2021/01/02 19:36:37;;;;;;;16.47;6.00;;;8.80;95.10;;;;;;5015873;28;20259;-84
2021/01/02 19:39:13;;;;;;;8.20;4.27;;;8.80;95.20;;;;;;5008397;28;20503;-84
2021/01/02 19:41:41;;;;;;;10.10;4.83;;;8.80;95.20;;;;;;5014885;28;20187;-84
2021/01/02 19:44:09;;;;;;;11.00;3.97;;;8.80;95.20;;;;;;5009513;28;20262;-84
2021/01/02 19:46:35;;;;;;;15.43;4.57;;;8.90;95.20;;;;;;5013762;28;20246;-84
2021/01/02 19:49:05;;;;;;;15.50;5.17;;;8.80;95.20;;;;;;5016722;28;20191;-84
2021/01/02 19:51:31;;;;;;;11.70;5.07;;;8.80;95.20;;;;;;5004369;28;20196;-83
2021/01/02 19:53:58;;;;;;;14.83;5.00;;;8.80;95.50;;;;;;5003377;28;20527;-84
2021/01/02 19:56:26;;;;;;;15.23;4.83;;;8.90;95.30;;;;;;5036998;28;20211;-84
2021/01/02 19:58:52;;;;;;;15.90;4.47;;;8.90;95.30;;;;;;5001451;28;20185;-84
2021/01/02 20:01:20;;;;;;;15.33;6.13;;;8.80;95.30;;;;;;5007408;28;20200;-84
2021/01/02 20:03:46;;;;;;;14.87;5.80;;;8.80;95.40;;;;;;5005932;28;20192;-84
2021/01/02 20:06:18;;;;;;;13.23;6.17;;;8.80;95.50;;;;;;5012282;28;20748;-84
2021/01/02 20:08:43;;;;;;;15.20;6.07;;;8.80;95.50;;;;;;5003403;28;20207;-83
2021/01/02 20:11:11;;;;;;;14.80;5.63;;;8.80;95.50;;;;;;5011085;28;20773;-84
2021/01/02 20:13:38;;;;;;;16.30;6.77;;;8.70;95.60;;;;;;5006899;28;20448;-84
2021/01/02 20:16:05;;;;;;;12.70;6.10;;;8.70;95.60;;;;;;5011480;28;20196;-84
2021/01/02 20:18:31;;;;;;;15.73;6.03;;;8.70;95.70;;;;;;5016813;28;20191;-85
2021/01/02 20:20:57;;;;;;;16.10;6.20;;;8.70;95.70;;;;;;5021401;28;20225;-84
2021/01/02 20:23:23;;;;;;;15.23;6.33;;;8.80;95.70;;;;;;5048331;28;20196;-84
2021/01/02 20:25:49;;;;;;;13.53;5.33;;;8.70;95.70;;;;;;5014243;28;20362;-84
2021/01/02 20:28:15;;;;;;;13.43;5.87;;;8.80;95.70;;;;;;5020196;28;20570;-84
2021/01/02 20:30:41;;;;;;;13.10;5.27;;;8.80;95.70;;;;;;5013729;28;20635;-83
2021/01/02 20:33:09;;;;;;;10.33;5.40;;;8.80;95.60;;;;;;5007415;28;20224;-83
2021/01/02 20:35:34;;;;;;;8.53;5.10;;;8.80;95.60;;;;;;5016699;28;20201;-83
2021/01/02 20:38:01;;;;;;;17.37;6.53;;;8.70;95.60;;;;;;5013586;28;20188;-84
2021/01/02 20:40:27;;;;;;;14.10;5.70;;;8.70;95.60;;;;;;5012515;28;20215;-84
2021/01/02 20:42:52;;;;;;;9.50;5.13;;;8.70;95.60;;;;;;5003355;28;20262;-83
2021/01/02 20:45:19;;;;;;;17.93;6.03;;;8.60;95.50;;;;;;5007952;28;20639;-84
2021/01/02 20:47:45;;;;;;;19.20;7.20;;;8.50;95.60;;;;;;5002521;28;20622;-84
2021/01/02 20:50:11;;;;;;;15.03;5.97;;;8.50;95.60;;;;;;5002313;28;20212;-84
2021/01/02 20:52:37;;;;;;;12.57;5.53;;;8.40;95.60;;;;;;5009638;28;20184;-84
2021/01/02 20:55:04;;;;;;;10.50;4.97;;;8.30;95.60;;;;;;5013483;28;20195;-84
2021/01/02 20:57:30;;;;;;;19.03;6.20;;;8.30;95.70;;;;;;5019545;28;20179;-84
2021/01/02 20:59:56;;;;;;;12.63;6.20;;;8.20;95.70;;;;;;5013331;28;20210;-84
2021/01/02 21:02:22;;;;;;;14.67;5.67;;;8.20;95.80;;;;;;5003405;28;20697;-84
2021/01/02 21:04:48;;;;;;;12.10;5.63;;;8.10;95.80;;;;;;5005841;28;20579;-84
2021/01/02 21:07:15;;;;;;;14.73;6.63;;;8.10;95.90;;;;;;5012940;28;20311;-84
2021/01/02 21:09:42;;;;;;;12.07;6.10;;;8.10;95.90;;;;;;5009644;28;20187;-84
2021/01/02 21:12:14;;;;;;;14.70;7.27;;;8.00;95.90;;;;;;5007757;28;20185;-83
2021/01/02 21:14:40;;;;;;;17.43;6.33;;;8.00;96.00;;;;;;5013609;28;20229;-83
2021/01/02 21:17:15;;;;;;;14.43;7.27;;;8.00;96.00;;;;;;5021237;28;20206;-83
2021/01/02 21:19:42;;;;;;;14.47;6.73;;;8.00;96.10;;;;;;5008904;28;20211;-84
2021/01/02 21:22:20;;;;;;;21.40;8.67;;;7.90;96.10;;;;;;5009772;28;20188;-84
2021/01/02 21:24:46;;;;;;;22.67;9.07;;;7.90;96.10;;;;;;5017057;28;20253;-84
2021/01/02 21:27:21;;;;;;;18.83;10.53;;;7.90;96.10;;;;;;5015164;28;20291;-84
2021/01/02 21:29:47;;;;;;;20.20;8.50;;;7.90;96.20;;;;;;5015720;28;20178;-84
2021/01/02 21:32:17;;;;;;;20.50;8.13;;;7.80;96.10;;;;;;5018891;28;20187;-84
2021/01/02 21:34:44;;;;;;;21.17;9.77;;;7.80;96.20;;;;;;5015343;28;20176;-84
2021/01/02 21:37:13;;;;;;;19.57;10.37;;;7.70;96.20;;;;;;5010633;28;20211;-84
2021/01/02 21:39:40;;;;;;;23.97;13.57;;;7.70;96.30;;;;;;5039481;28;20274;-84
2021/01/02 21:42:12;;;;;;;25.27;11.97;;;7.70;96.30;;;;;;5043907;28;20264;-84
2021/01/02 21:44:40;;;;;;;21.17;10.47;;;7.70;96.30;;;;;;5010794;28;20243;-84
2021/01/02 21:47:09;;;;;;;26.37;7.50;;;7.70;96.20;;;;;;5011516;28;20199;-84
2021/01/02 21:49:36;;;;;;;14.90;6.17;;;7.70;96.20;;;;;;5009894;28;20238;-84
2021/01/02 21:52:05;;;;;;;12.10;5.63;;;7.70;96.20;;;;;;5037196;28;20181;-84
2021/01/02 21:54:32;;;;;;;12.47;5.87;;;7.70;96.20;;;;;;5012079;28;20568;-83
2021/01/02 21:57:00;;;;;;;10.63;5.00;;;7.70;96.20;;;;;;5004473;28;20180;-83
2021/01/02 21:59:28;;;;;;;14.77;6.37;;;7.60;96.20;;;;;;5012284;28;20184;-83
2021/01/02 22:01:54;;;;;;;18.63;6.53;;;7.60;96.20;;;;;;5011820;28;20188;-83
2021/01/02 22:04:20;;;;;;;9.50;5.30;;;7.60;96.30;;;;;;5012309;28;20193;-83
2021/01/02 22:06:47;;;;;;;13.23;6.57;;;7.60;96.30;;;;;;5019832;28;20291;-83
2021/01/02 22:09:14;;;;;;;15.17;5.97;;;7.60;96.30;;;;;;5048060;28;20525;-83
2021/01/02 22:11:41;;;;;;;11.07;6.17;;;7.60;96.30;;;;;;5021134;28;20208;-83
2021/01/02 22:14:09;;;;;;;12.23;6.77;;;7.50;96.30;;;;;;5020359;28;20183;-83
2021/01/02 22:16:37;;;;;;;12.53;6.00;;;7.50;96.30;;;;;;5016170;28;20187;-84
2021/01/02 22:19:04;;;;;;;19.17;6.93;;;7.50;96.40;;;;;;5021496;28;20270;-83
2021/01/02 22:21:39;;;;;;;20.03;7.07;;;7.50;96.40;;;;;;5016592;28;20214;-83
2021/01/02 22:24:05;;;;;;;13.97;7.40;;;7.60;96.50;;;;;;5022288;28;20188;-84
2021/01/02 22:26:31;;;;;;;19.83;7.23;;;7.60;96.40;;;;;;5005026;28;20208;-83
2021/01/02 22:28:57;;;;;;;15.63;7.23;;;7.70;96.40;;;;;;5037911;28;20172;-83
2021/01/02 22:31:31;;;;;;;16.07;8.80;;;7.70;96.30;;;;;;5024305;28;20192;-83
2021/01/02 22:33:57;;;;;;;18.30;9.30;;;7.60;96.20;;;;;;5017576;28;20506;-83
2021/01/02 22:36:24;;;;;;;22.33;9.43;;;7.60;96.10;;;;;;5001719;28;20216;-84
2021/01/02 22:38:49;;;;;;;24.43;9.47;;;7.50;96.10;;;;;;5004420;28;20645;-83
2021/01/02 22:41:23;;;;;;;23.37;11.20;;;7.40;96.10;;;;;;5011702;28;20248;-83
2021/01/02 22:43:51;;;;;;;17.77;8.97;;;7.40;96.10;;;;;;5036152;28;20179;-83
2021/01/02 22:46:27;;;;;;;20.53;8.50;;;7.30;96.20;;;;;;5010113;28;20216;-84
2021/01/02 22:48:52;;;;;;;20.33;8.10;;;7.20;96.30;;;;;;5004830;28;20224;-84
2021/01/02 22:51:24;;;;;;;18.47;7.30;;;7.20;96.20;;;;;;5006118;28;20243;-83
2021/01/02 22:53:52;;;;;;;23.53;6.90;;;7.20;96.30;;;;;;5009727;28;20560;-83
2021/01/02 22:56:21;;;;;;;20.27;6.63;;;7.10;96.20;;;;;;5012271;28;20216;-84
2021/01/02 22:58:48;;;;;;;18.70;6.67;;;7.10;96.30;;;;;;5015413;28;20618;-84
2021/01/02 23:01:17;;;;;;;13.27;6.93;;;7.10;96.30;;;;;;5030464;28;20208;-83
2021/01/02 23:03:45;;;;;;;24.83;6.67;;;7.10;96.40;;;;;;5009837;28;20254;-83
2021/01/02 23:06:16;;;;;;;19.67;6.80;;;7.10;96.30;;;;;;5015741;28;20238;-84
2021/01/02 23:08:44;;;;;;;14.63;6.23;;;7.10;96.20;;;;;;5003687;28;20223;-84
2021/01/02 23:11:10;;;;;;;17.63;6.10;;;7.00;96.20;;;;;;5011684;28;20180;-83
2021/01/02 23:13:36;;;;;;;18.43;6.80;;;7.00;96.20;;;;;;4997524;28;20601;-84
2021/01/02 23:16:01;;;;;;;18.80;7.63;;;7.00;96.30;;;;;;5005478;28;20191;-84
2021/01/02 23:18:27;;;;;;;12.97;7.27;;;7.00;96.30;;;;;;5007307;28;20197;-84
2021/01/02 23:20:54;;;;;;;19.33;8.40;;;7.00;96.20;;;;;;5007754;28;20191;-84
2021/01/02 23:23:21;;;;;;;21.33;8.13;;;7.00;96.20;;;;;;5009049;28;20188;-84
2021/01/02 23:25:47;;;;;;;12.00;6.97;;;6.90;96.20;;;;;;5045700;28;20219;-84
2021/01/02 23:28:13;;;;;;;14.53;7.33;;;6.90;96.20;;;;;;5003977;28;20202;-84
2021/01/02 23:30:39;;;;;;;19.47;7.20;;;7.00;96.20;;;;;;5017676;28;20512;-84
2021/01/02 23:33:05;;;;;;;16.10;7.23;;;6.90;96.20;;;;;;5013687;28;20236;-83
2021/01/02 23:35:31;;;;;;;14.13;7.53;;;6.90;96.10;;;;;;5012683;28;20199;-84
2021/01/02 23:37:58;;;;;;;12.80;7.03;;;6.90;96.20;;;;;;5006462;28;20188;-84
2021/01/02 23:40:25;;;;;;;17.70;7.70;;;7.00;96.10;;;;;;5012090;28;20184;-84
2021/01/02 23:42:50;;;;;;;18.07;8.00;;;6.90;96.10;;;;;;5010191;28;20719;-83
2021/01/02 23:45:20;;;;;;;14.67;6.90;;;7.00;96.10;;;;;;5008328;28;20215;-84
2021/01/02 23:47:46;;;;;;;17.10;7.87;;;7.00;96.10;;;;;;5010061;28;20258;-84
2021/01/02 23:50:29;;;;;;;12.13;8.10;;;7.00;95.90;;;;;;5012039;28;20265;-84
2021/01/02 23:52:55;;;;;;;12.90;8.33;;;7.00;95.90;;;;;;5017506;28;20194;-83
2021/01/02 23:55:22;;;;;;;19.43;7.73;;;7.00;95.80;;;;;;5013192;28;20176;-83
2021/01/02 23:57:49;;;;;;;14.40;7.00;;;7.10;95.70;;;;;;5011562;28;20191;-83
